Time;durP1;ratioP1;P1;durP2;ratioP2;P2;SDS_P1;SDS_P2;PMS_P1;PMS_P2;Temp;Humidity;BMP_temperature;BMP_pressure;BME280_temperature;BME280_humidity;BME280_pressure;Samples;Min_cycle;Max_cycle;Signal;HPM_P1;HPM_P2
2022/04/11 00:02:23;;;;;;;6.43;2.03;;;10.90;99.90;;;;;;5089262;28;20028;-80
2022/04/11 00:04:49;;;;;;;7.82;2.40;;;10.90;99.90;;;;;;5087681;28;20135;-80
2022/04/11 00:07:15;;;;;;;3.35;1.52;;;11.00;99.90;;;;;;5089121;28;20052;-80
2022/04/11 00:09:42;;;;;;;3.30;1.70;;;11.00;99.90;;;;;;5090848;28;20027;-80
2022/04/11 00:12:09;;;;;;;5.72;2.00;;;11.00;99.90;;;;;;5088643;28;20031;-79
2022/04/11 00:14:34;;;;;;;10.88;2.38;;;11.00;99.90;;;;;;5085428;28;20477;-79
2022/04/11 00:17:00;;;;;;;10.45;1.90;;;11.10;99.90;;;;;;5080183;28;20554;-79
2022/04/11 00:19:26;;;;;;;9.20;2.47;;;11.10;99.90;;;;;;5087377;28;20020;-79
2022/04/11 00:21:51;;;;;;;11.57;2.83;;;11.10;99.90;;;;;;5089654;28;20514;-79
2022/04/11 00:24:17;;;;;;;8.50;2.13;;;11.10;99.90;;;;;;5090326;28;20443;-78
2022/04/11 00:26:43;;;;;;;4.97;1.95;;;11.20;99.90;;;;;;5076650;28;20383;-79
2022/04/11 00:29:08;;;;;;;9.55;3.85;;;11.20;99.90;;;;;;5078085;28;20024;-79
2022/04/11 00:31:34;;;;;;;10.55;2.58;;;11.20;99.90;;;;;;5086053;28;20017;-79
2022/04/11 00:34:00;;;;;;;7.78;2.30;;;11.20;99.90;;;;;;5088613;28;20520;-79
2022/04/11 00:36:25;;;;;;;7.43;2.20;;;11.20;99.90;;;;;;5083710;28;20017;-80
2022/04/11 00:38:51;;;;;;;5.43;2.03;;;11.20;99.90;;;;;;5088248;28;20539;-79
2022/04/11 00:41:17;;;;;;;8.15;2.28;;;11.30;99.90;;;;;;5088225;28;20497;-79
2022/04/11 00:43:42;;;;;;;12.25;2.60;;;11.30;99.90;;;;;;5088607;28;20497;-79
2022/04/11 00:46:09;;;;;;;10.23;2.30;;;11.30;99.90;;;;;;5070819;28;20036;-79
2022/04/11 00:48:36;;;;;;;8.05;2.58;;;11.30;99.90;;;;;;5090413;28;20024;-79
2022/04/11 00:51:06;;;;;;;5.80;2.42;;;11.30;99.90;;;;;;5088334;28;20032;-79
2022/04/11 00:53:34;;;;;;;8.23;2.08;;;11.30;99.90;;;;;;5088063;28;20085;-79
2022/04/11 00:56:01;;;;;;;9.25;2.75;;;11.40;99.90;;;;;;5078806;28;20051;-80
2022/04/11 00:58:30;;;;;;;7.40;2.03;;;11.30;99.90;;;;;;5090695;28;20085;-79
2022/04/11 01:00:56;;;;;;;5.72;1.77;;;11.40;99.90;;;;;;5092229;28;20102;-80
2022/04/11 01:03:22;;;;;;;8.45;2.20;;;11.40;99.90;;;;;;5094154;28;20023;-80
2022/04/11 01:05:48;;;;;;;10.43;2.40;;;11.40;99.90;;;;;;5084443;28;20436;-80
2022/04/11 01:08:14;;;;;;;5.55;1.75;;;11.40;99.90;;;;;;5087320;28;20073;-80
2022/04/11 01:10:41;;;;;;;6.22;2.28;;;11.40;99.90;;;;;;5079240;28;20032;-80
2022/04/11 01:13:06;;;;;;;3.28;1.58;;;11.40;99.90;;;;;;5091445;28;20060;-80
2022/04/11 01:15:32;;;;;;;7.47;2.67;;;11.40;99.90;;;;;;5092771;28;20481;-80
2022/04/11 01:17:58;;;;;;;7.65;2.58;;;11.40;99.90;;;;;;5091459;28;20516;-80
2022/04/11 01:20:24;;;;;;;8.27;2.20;;;11.40;99.90;;;;;;5092026;28;20497;-80
2022/04/11 01:22:49;;;;;;;9.63;3.08;;;11.40;99.90;;;;;;5089824;28;20494;-79
2022/04/11 01:25:18;;;;;;;10.02;2.33;;;11.40;99.90;;;;;;5087233;28;20106;-80
2022/04/11 01:27:44;;;;;;;7.70;2.22;;;11.40;99.90;;;;;;5093129;28;20031;-79
2022/04/11 01:30:14;;;;;;;6.63;2.08;;;11.40;99.90;;;;;;5092206;28;20059;-79
2022/04/11 01:32:40;;;;;;;2.65;1.58;;;11.40;99.90;;;;;;5091812;28;20024;-80
2022/04/11 01:35:19;;;;;;;8.13;2.65;;;11.50;99.90;;;;;;5091675;28;20032;-80
2022/04/11 01:37:45;;;;;;;8.90;3.03;;;11.40;99.90;;;;;;5089881;28;20090;-80
2022/04/11 01:40:11;;;;;;;7.80;2.03;;;11.40;99.90;;;;;;5091403;28;20470;-80
2022/04/11 01:42:36;;;;;;;9.88;2.42;;;11.50;99.90;;;;;;5093960;28;20435;-80
2022/04/11 01:45:03;;;;;;;7.38;2.55;;;11.40;99.90;;;;;;5089599;28;20565;-80
2022/04/11 01:47:29;;;;;;;8.73;2.60;;;11.40;99.90;;;;;;5086204;28;20024;-80
2022/04/11 01:49:54;;;;;;;8.20;2.42;;;11.50;99.90;;;;;;5090930;28;20035;-80
2022/04/11 01:52:20;;;;;;;11.93;2.58;;;11.50;99.90;;;;;;5087277;28;20099;-81
2022/04/11 01:54:46;;;;;;;10.10;2.30;;;11.50;99.90;;;;;;5080269;28;20040;-80
2022/04/11 01:57:11;;;;;;;10.63;4.07;;;11.50;99.90;;;;;;5088322;28;20032;-80
2022/04/11 01:59:37;;;;;;;4.55;1.65;;;11.50;99.90;;;;;;5091390;28;20032;-80
2022/04/11 02:02:03;;;;;;;5.75;2.45;;;11.50;99.90;;;;;;5089357;28;20490;-80
2022/04/11 02:04:31;;;;;;;7.53;2.38;;;11.50;99.90;;;;;;5086938;28;20059;-80
2022/04/11 02:06:57;;;;;;;3.60;1.83;;;11.50;99.90;;;;;;5088846;28;20024;-80
2022/04/11 02:09:22;;;;;;;8.23;3.40;;;11.50;99.90;;;;;;5092933;28;20120;-80
2022/04/11 02:11:48;;;;;;;6.95;2.67;;;11.50;99.90;;;;;;5090108;28;20070;-80
2022/04/11 02:14:14;;;;;;;7.72;2.83;;;11.50;99.90;;;;;;5090991;28;20548;-80
2022/04/11 02:16:40;;;;;;;10.18;2.85;;;11.50;99.90;;;;;;5091344;28;20018;-80
2022/04/11 02:19:05;;;;;;;11.40;2.97;;;11.50;99.90;;;;;;5090396;28;20155;-80
2022/04/11 02:21:31;;;;;;;7.50;2.67;;;11.50;99.90;;;;;;5085983;28;20034;-80
2022/04/11 02:23:57;;;;;;;12.82;2.78;;;11.50;99.90;;;;;;5081714;28;20375;-80
2022/04/11 02:26:22;;;;;;;7.18;2.90;;;11.50;99.90;;;;;;5084191;28;20033;-79
2022/04/11 02:28:48;;;;;;;12.45;2.83;;;11.50;99.90;;;;;;5070886;28;20016;-79
2022/04/11 02:31:14;;;;;;;10.00;2.55;;;11.60;99.90;;;;;;5090516;28;20035;-79
2022/04/11 02:33:39;;;;;;;4.82;2.33;;;11.60;99.90;;;;;;5091348;28;20493;-79
2022/04/11 02:36:05;;;;;;;7.07;2.42;;;11.50;99.90;;;;;;5090637;28;20031;-79
2022/04/11 02:38:31;;;;;;;11.20;2.47;;;11.50;99.90;;;;;;5090172;28;20119;-79
2022/04/11 02:40:56;;;;;;;12.07;2.67;;;11.50;99.90;;;;;;5090400;28;20028;-79
2022/04/11 02:43:22;;;;;;;5.53;2.40;;;11.50;99.90;;;;;;5088455;28;20549;-79
2022/04/11 02:45:48;;;;;;;8.40;2.20;;;11.50;99.90;;;;;;5091872;28;20486;-79
2022/04/11 02:48:13;;;;;;;13.98;3.83;;;11.60;99.90;;;;;;5090763;28;20107;-79
2022/04/11 02:50:39;;;;;;;10.50;3.40;;;11.50;99.90;;;;;;5090389;28;20493;-79
2022/04/11 02:53:05;;;;;;;6.68;1.98;;;11.50;99.90;;;;;;5088023;28;20513;-79
2022/04/11 02:55:30;;;;;;;3.97;2.15;;;11.50;99.90;;;;;;5083206;28;20517;-79
2022/04/11 02:57:56;;;;;;;15.43;3.03;;;11.50;99.90;;;;;;5090637;28;20047;-79
2022/04/11 03:00:22;;;;;;;8.57;2.17;;;11.50;99.90;;;;;;5091368;28;20058;-79
2022/04/11 03:02:47;;;;;;;10.73;2.85;;;11.60;99.90;;;;;;5088118;28;20509;-79
2022/04/11 03:05:13;;;;;;;8.77;2.72;;;11.50;99.90;;;;;;5088850;28;20513;-79
2022/04/11 03:07:39;;;;;;;7.80;2.20;;;11.50;99.90;;;;;;5088995;28;20062;-79
2022/04/11 03:10:05;;;;;;;11.38;2.42;;;11.50;99.90;;;;;;5090095;28;20032;-79
2022/04/11 03:12:33;;;;;;;9.77;2.60;;;11.50;99.90;;;;;;5076667;28;20029;-80
2022/04/11 03:14:59;;;;;;;5.35;2.40;;;11.50;99.90;;;;;;5076676;28;20032;-79
2022/04/11 03:17:24;;;;;;;9.38;2.78;;;11.50;99.90;;;;;;5083735;28;20028;-79
2022/04/11 03:19:50;;;;;;;12.05;2.83;;;11.50;99.90;;;;;;5086921;28;20099;-79
2022/04/11 03:22:16;;;;;;;9.27;3.33;;;11.50;99.90;;;;;;5087031;28;20495;-79
2022/04/11 03:24:41;;;;;;;10.52;2.72;;;11.40;99.90;;;;;;5087715;28;20232;-79
2022/04/11 03:27:07;;;;;;;11.88;1.85;;;11.40;99.90;;;;;;5085643;28;20074;-79
2022/04/11 03:29:33;;;;;;;8.38;3.00;;;11.40;99.90;;;;;;5078183;28;20033;-80
2022/04/11 03:31:58;;;;;;;11.82;2.92;;;11.40;99.90;;;;;;5072783;28;20449;-80
2022/04/11 03:34:24;;;;;;;9.63;2.28;;;11.40;99.90;;;;;;5074026;28;20409;-79
2022/04/11 03:36:51;;;;;;;10.98;2.78;;;11.40;99.90;;;;;;5089143;28;20035;-80
2022/04/11 03:39:17;;;;;;;10.30;2.55;;;11.30;99.90;;;;;;5085470;28;20039;-80
2022/04/11 03:41:46;;;;;;;6.47;2.05;;;11.30;99.90;;;;;;5082193;28;20032;-79
2022/04/11 03:44:11;;;;;;;7.93;2.50;;;11.30;99.90;;;;;;5085316;28;20020;-80
2022/04/11 03:46:38;;;;;;;13.82;3.53;;;11.30;99.90;;;;;;5087154;28;20090;-79
2022/04/11 03:49:04;;;;;;;14.80;2.92;;;11.30;99.90;;;;;;5070678;28;20028;-79
2022/04/11 03:51:30;;;;;;;10.07;3.05;;;11.30;99.90;;;;;;5091611;28;20504;-79
2022/04/11 03:53:55;;;;;;;12.10;2.95;;;11.30;99.90;;;;;;5087502;28;20024;-80
2022/04/11 03:56:21;;;;;;;11.30;2.80;;;11.30;99.90;;;;;;5080359;28;20506;-80
2022/04/11 03:58:47;;;;;;;14.32;2.60;;;11.30;99.90;;;;;;5083658;28;20024;-80
2022/04/11 04:01:13;;;;;;;11.32;2.40;;;11.20;99.90;;;;;;5089491;28;20028;-79
2022/04/11 04:03:40;;;;;;;7.93;2.53;;;11.30;99.90;;;;;;5071864;28;20033;-79
2022/04/11 04:06:06;;;;;;;9.90;2.53;;;11.20;99.90;;;;;;5086275;28;20047;-80
2022/04/11 04:08:32;;;;;;;7.03;2.35;;;11.20;99.90;;;;;;5077600;28;20035;-79
2022/04/11 04:10:58;;;;;;;7.20;2.25;;;11.20;99.90;;;;;;5075479;28;20401;-80
2022/04/11 04:13:24;;;;;;;11.48;3.15;;;11.20;99.90;;;;;;5084762;28;20056;-79
2022/04/11 04:15:50;;;;;;;8.57;2.40;;;11.20;99.90;;;;;;5086497;28;20508;-81
2022/04/11 04:18:16;;;;;;;13.70;3.15;;;11.20;99.90;;;;;;5086996;28;20039;-79
2022/04/11 04:20:42;;;;;;;7.20;3.03;;;11.20;99.90;;;;;;5077336;28;20033;-79
2022/04/11 04:23:08;;;;;;;12.32;2.65;;;11.20;99.90;;;;;;5081278;28;20020;-79
2022/04/11 04:25:34;;;;;;;7.68;2.55;;;11.20;99.90;;;;;;5087323;28;20016;-79
2022/04/11 04:28:01;;;;;;;13.30;2.40;;;11.20;99.90;;;;;;5071273;28;20035;-79
2022/04/11 04:30:28;;;;;;;14.07;2.95;;;11.10;99.90;;;;;;5086322;28;20486;-79
2022/04/11 04:32:54;;;;;;;12.75;3.03;;;11.10;99.90;;;;;;5084706;28;20554;-79
2022/04/11 04:35:20;;;;;;;9.15;2.13;;;11.10;99.90;;;;;;5080015;28;20020;-79
2022/04/11 04:37:46;;;;;;;12.65;3.10;;;11.10;99.90;;;;;;5073436;28;20534;-80
2022/04/11 04:40:11;;;;;;;10.43;3.28;;;11.10;99.90;;;;;;5088949;28;20028;-80
2022/04/11 04:42:37;;;;;;;10.68;3.10;;;11.10;99.90;;;;;;5071222;28;20032;-80
2022/04/11 04:45:05;;;;;;;7.65;2.45;;;11.10;99.90;;;;;;5073467;28;20025;-80
2022/04/11 04:47:30;;;;;;;11.60;2.83;;;11.10;99.90;;;;;;5082409;28;20521;-79
2022/04/11 04:49:56;;;;;;;18.90;4.15;;;11.10;99.90;;;;;;5083261;28;20063;-79
2022/04/11 04:52:22;;;;;;;13.93;3.08;;;11.10;99.90;;;;;;5069700;28;20032;-80
2022/04/11 04:54:47;;;;;;;11.45;2.63;;;11.10;99.90;;;;;;5078693;28;20048;-79
2022/04/11 04:57:13;;;;;;;8.80;2.85;;;11.10;99.90;;;;;;5089183;28;20528;-80
2022/04/11 04:59:39;;;;;;;5.28;2.25;;;11.10;99.90;;;;;;5088109;28;20016;-80
2022/04/11 05:02:04;;;;;;;19.45;4.07;;;11.00;99.90;;;;;;5080429;28;20073;-79
2022/04/11 05:04:30;;;;;;;6.85;2.50;;;11.10;99.90;;;;;;5073451;28;20513;-79
2022/04/11 05:06:56;;;;;;;11.27;3.67;;;11.10;99.90;;;;;;5085142;28;20111;-80
2022/04/11 05:09:21;;;;;;;9.38;2.42;;;11.10;99.90;;;;;;5088024;28;20111;-79
2022/04/11 05:11:47;;;;;;;9.70;2.53;;;11.00;99.90;;;;;;5086118;28;20032;-79
2022/04/11 05:14:13;;;;;;;13.32;2.33;;;11.10;99.90;;;;;;5087293;28;20031;-80
2022/04/11 05:16:38;;;;;;;11.27;3.70;;;11.10;99.90;;;;;;5088942;28;20063;-80
2022/04/11 05:19:04;;;;;;;16.35;3.78;;;11.10;99.90;;;;;;5070168;28;20536;-80
2022/04/11 05:21:30;;;;;;;12.50;2.60;;;11.10;99.90;;;;;;5069144;28;20536;-80
2022/04/11 05:23:56;;;;;;;8.52;2.42;;;11.00;99.90;;;;;;5081637;28;20024;-80
2022/04/11 05:26:22;;;;;;;12.75;2.60;;;11.00;99.90;;;;;;5088409;28;20469;-80
2022/04/11 05:28:50;;;;;;;8.70;2.08;;;11.00;99.90;;;;;;5087348;28;20016;-79
2022/04/11 05:31:17;;;;;;;9.55;2.80;;;11.10;99.90;;;;;;5087757;28;20078;-79
2022/04/11 05:33:42;;;;;;;13.52;2.83;;;11.10;99.90;;;;;;5070471;28;20023;-80
2022/04/11 05:36:08;;;;;;;10.88;2.80;;;11.20;99.90;;;;;;5088193;28;20111;-80
2022/04/11 05:38:34;;;;;;;15.07;2.70;;;11.20;99.90;;;;;;5084112;28;20112;-80
2022/04/11 05:40:59;;;;;;;10.43;3.15;;;11.20;99.90;;;;;;5088587;28;20024;-80
2022/04/11 05:43:25;;;;;;;14.20;2.38;;;11.20;99.90;;;;;;5084362;28;20520;-80
2022/04/11 05:45:51;;;;;;;15.05;3.05;;;11.20;99.90;;;;;;5073264;28;20017;-80
2022/04/11 05:48:16;;;;;;;7.47;2.40;;;11.20;99.90;;;;;;5092590;28;20063;-80
2022/04/11 05:50:42;;;;;;;9.63;2.83;;;11.20;99.90;;;;;;5091786;28;20582;-80
2022/04/11 05:53:08;;;;;;;7.63;2.33;;;11.20;99.90;;;;;;5090866;28;20070;-80
2022/04/11 05:55:34;;;;;;;11.15;3.03;;;11.30;99.90;;;;;;5082498;28;20055;-80
2022/04/11 05:57:59;;;;;;;10.05;2.58;;;11.30;99.90;;;;;;5091699;28;20031;-81
2022/04/11 06:00:25;;;;;;;9.23;2.70;;;11.30;99.90;;;;;;5090122;28;20041;-80
2022/04/11 06:02:51;;;;;;;8.13;2.72;;;11.40;99.90;;;;;;5075013;28;20567;-81
2022/04/11 06:05:17;;;;;;;9.75;2.72;;;11.40;99.90;;;;;;5084032;28;20032;-80
2022/04/11 06:07:43;;;;;;;9.90;3.08;;;11.40;99.90;;;;;;5090659;28;20493;-80
2022/04/11 06:10:09;;;;;;;5.97;2.00;;;11.50;99.90;;;;;;5090709;28;20478;-81
2022/04/11 06:12:36;;;;;;;8.55;2.40;;;11.60;99.90;;;;;;5093410;28;20024;-81
2022/04/11 06:15:03;;;;;;;15.60;2.47;;;11.60;99.90;;;;;;5073537;28;20064;-80
2022/04/11 06:17:29;;;;;;;7.07;2.28;;;11.70;99.90;;;;;;5085292;28;20035;-80
2022/04/11 06:19:57;;;;;;;12.00;3.30;;;11.70;99.90;;;;;;5090557;28;20024;-81
2022/04/11 06:22:23;;;;;;;15.20;3.63;;;11.80;99.90;;;;;;5076650;28;20050;-80
2022/04/11 06:24:50;;;;;;;10.27;2.80;;;11.90;99.90;;;;;;5091627;28;20025;-80
2022/04/11 06:27:17;;;;;;;12.40;2.03;;;12.00;99.90;;;;;;5072715;28;20114;-80
2022/04/11 06:29:44;;;;;;;9.10;2.35;;;12.00;99.90;;;;;;5079335;28;20093;-80
2022/04/11 06:32:10;;;;;;;12.02;2.17;;;12.00;99.90;;;;;;5091136;28;20028;-81
2022/04/11 06:34:37;;;;;;;10.43;2.85;;;12.00;99.90;;;;;;5089519;28;20036;-81
2022/04/11 06:37:06;;;;;;;9.80;2.63;;;12.10;99.90;;;;;;5090876;28;20497;-80
2022/04/11 06:39:32;;;;;;;12.88;3.40;;;12.00;99.90;;;;;;5091239;28;20043;-80
2022/04/11 06:41:57;;;;;;;7.75;1.85;;;12.10;99.90;;;;;;5090773;28;20027;-80
2022/04/11 06:44:24;;;;;;;7.65;2.35;;;12.20;99.90;;;;;;5078001;28;20024;-80
2022/04/11 06:46:50;;;;;;;7.97;2.25;;;12.40;99.90;;;;;;5079335;28;20047;-80
2022/04/11 06:49:16;;;;;;;9.45;2.67;;;12.40;99.90;;;;;;5086568;28;20517;-79
2022/04/11 06:51:41;;;;;;;10.95;3.25;;;12.40;99.90;;;;;;5072194;28;20078;-80
2022/04/11 06:54:07;;;;;;;6.93;2.35;;;12.40;99.90;;;;;;5073416;28;20039;-80
2022/04/11 06:56:33;;;;;;;11.15;2.80;;;12.40;99.90;;;;;;5088510;28;20394;-80
2022/04/11 06:58:58;;;;;;;8.00;2.15;;;12.60;99.90;;;;;;5078549;28;20551;-80
2022/04/11 07:01:24;;;;;;;8.57;2.45;;;12.60;99.90;;;;;;5071774;28;20024;-80
2022/04/11 07:03:51;;;;;;;9.07;2.17;;;12.60;99.90;;;;;;5087689;28;20064;-80
2022/04/11 07:06:17;;;;;;;7.38;2.72;;;12.70;99.90;;;;;;5089491;28;20027;-80
2022/04/11 07:08:42;;;;;;;14.13;3.08;;;13.50;99.90;;;;;;5087458;28;20040;-80
2022/04/11 07:11:08;;;;;;;12.90;2.90;;;13.90;99.90;;;;;;5082345;28;20046;-80
2022/04/11 07:13:34;;;;;;;12.57;2.80;;;14.60;99.90;;;;;;5070597;28;20021;-79
2022/04/11 07:16:01;;;;;;;8.15;2.35;;;14.90;99.90;;;;;;5087376;28;20028;-80
2022/04/11 07:18:27;;;;;;;10.75;2.95;;;15.60;99.90;;;;;;5072089;28;20157;-79
2022/04/11 07:20:56;;;;;;;7.38;2.10;;;15.60;99.90;;;;;;5085344;28;20028;-80
2022/04/11 07:23:22;;;;;;;10.40;3.05;;;15.70;99.90;;;;;;5089487;28;20475;-79
2022/04/11 07:25:48;;;;;;;11.45;2.95;;;15.60;99.90;;;;;;5088961;28;20414;-79
2022/04/11 07:28:14;;;;;;;7.75;2.35;;;15.40;99.90;;;;;;5088004;28;20042;-79
2022/04/11 07:30:40;;;;;;;12.30;3.08;;;15.00;99.90;;;;;;5089441;28;20115;-79
2022/04/11 07:33:08;;;;;;;9.13;2.13;;;14.50;99.90;;;;;;5071534;28;20040;-79
2022/04/11 07:35:33;;;;;;;9.57;3.03;;;14.50;99.90;;;;;;5076574;28;20503;-80
2022/04/11 07:38:00;;;;;;;10.63;2.60;;;14.70;99.90;;;;;;5078121;28;20031;-79
2022/04/11 07:40:26;;;;;;;12.98;3.55;;;14.50;99.90;;;;;;5075090;28;20020;-79
2022/04/11 07:42:53;;;;;;;7.85;2.20;;;14.60;99.90;;;;;;5089698;28;20032;-80
2022/04/11 07:45:22;;;;;;;8.45;2.85;;;15.10;99.90;;;;;;5081601;28;20023;-79
2022/04/11 07:47:48;;;;;;;6.47;2.15;;;15.10;99.90;;;;;;5081194;28;20034;-80
2022/04/11 07:50:14;;;;;;;12.68;2.60;;;15.10;99.90;;;;;;5088482;28;20028;-79
2022/04/11 07:52:42;;;;;;;8.13;3.08;;;15.20;99.90;;;;;;5084758;28;20020;-79
2022/04/11 07:55:11;;;;;;;9.02;2.10;;;15.50;99.90;;;;;;5077072;28;20055;-79
2022/04/11 07:57:36;;;;;;;14.82;3.00;;;15.80;99.90;;;;;;5080700;28;20099;-79
2022/04/11 08:00:04;;;;;;;9.52;2.90;;;16.30;99.90;;;;;;5089186;28;20568;-79
2022/04/11 08:02:29;;;;;;;6.95;2.45;;;16.00;99.90;;;;;;5088241;28;20024;-79
2022/04/11 08:04:55;;;;;;;9.90;2.60;;;16.50;99.90;;;;;;5088520;28;20016;-79
2022/04/11 08:07:21;;;;;;;7.78;2.28;;;16.30;99.90;;;;;;5085971;28;20420;-79
2022/04/11 08:09:48;;;;;;;11.07;3.08;;;16.60;99.90;;;;;;5076580;28;20029;-79
2022/04/11 08:12:17;;;;;;;9.15;2.78;;;16.70;99.90;;;;;;5078315;28;20111;-79
2022/04/11 08:14:43;;;;;;;6.22;2.38;;;16.60;99.90;;;;;;5083791;28;20511;-79
2022/04/11 08:17:09;;;;;;;9.00;2.47;;;16.80;99.90;;;;;;5081634;28;20032;-79
2022/04/11 08:19:34;;;;;;;11.90;3.28;;;17.00;99.90;;;;;;5078628;28;20530;-80
2022/04/11 08:22:00;;;;;;;5.72;1.80;;;16.40;99.90;;;;;;5074487;28;20024;-80
2022/04/11 08:24:26;;;;;;;13.07;2.78;;;16.40;99.90;;;;;;5075373;28;20107;-77
2022/04/11 08:26:51;;;;;;;8.25;1.95;;;16.40;99.90;;;;;;5080694;28;20028;-77
2022/04/11 08:29:20;;;;;;;16.35;2.50;;;16.30;99.90;;;;;;5070413;28;20103;-77
2022/04/11 08:31:46;;;;;;;5.93;2.17;;;16.50;99.90;;;;;;5080855;28;20032;-77
2022/04/11 08:34:11;;;;;;;7.60;2.00;;;16.60;99.90;;;;;;5080153;28;20088;-78
2022/04/11 08:36:37;;;;;;;7.07;2.10;;;17.00;99.90;;;;;;5080442;28;20024;-78
2022/04/11 08:39:03;;;;;;;8.18;2.30;;;17.70;99.70;;;;;;5083352;28;20101;-78
2022/04/11 08:41:36;;;;;;;5.60;1.77;;;17.90;99.60;;;;;;5076418;28;20525;-77
2022/04/11 08:44:05;;;;;;;7.45;2.17;;;17.70;98.60;;;;;;5075863;28;20028;-77
2022/04/11 08:46:33;;;;;;;8.15;2.40;;;17.40;99.00;;;;;;5073345;28;20027;-77
2022/04/11 08:49:06;;;;;;;10.68;1.80;;;17.60;99.00;;;;;;5080302;28;20520;-77
2022/04/11 08:51:34;;;;;;;9.68;3.08;;;17.60;99.00;;;;;;5077015;28;20032;-77
2022/04/11 08:54:01;;;;;;;9.88;2.72;;;17.50;99.00;;;;;;5081372;28;20048;-76
2022/04/11 08:56:28;;;;;;;9.90;2.40;;;17.30;99.30;;;;;;5079980;28;20087;-74
2022/04/11 08:58:55;;;;;;;10.07;2.15;;;17.10;99.40;;;;;;5078814;28;20024;-75
2022/04/11 09:01:22;;;;;;;8.73;2.90;;;16.80;99.50;;;;;;5084541;28;20095;-75
2022/04/11 09:03:49;;;;;;;7.35;1.92;;;17.10;99.90;;;;;;5073675;28;20016;-75
2022/04/11 09:06:15;;;;;;;7.10;2.20;;;17.70;98.10;;;;;;5070424;28;20032;-75
2022/04/11 09:08:40;;;;;;;11.68;2.50;;;17.90;98.20;;;;;;5076632;28;20020;-75
2022/04/11 09:11:07;;;;;;;5.57;2.05;;;17.90;98.00;;;;;;5087611;28;20028;-76
2022/04/11 09:13:47;;;;;;;9.13;2.60;;;18.00;97.80;;;;;;5074672;28;20036;-75
2022/04/11 09:16:13;;;;;;;6.43;1.92;;;17.60;98.70;;;;;;5075305;28;20046;-76
2022/04/11 09:18:52;;;;;;;6.03;1.90;;;18.40;97.20;;;;;;5080395;28;20033;-76
2022/04/11 09:21:22;;;;;;;5.60;2.15;;;18.80;97.30;;;;;;5086798;28;20107;-76
2022/04/11 09:23:49;;;;;;;9.45;2.53;;;18.80;96.50;;;;;;5080309;28;20103;-76
2022/04/11 09:26:23;;;;;;;13.52;3.22;;;18.90;96.90;;;;;;5081561;28;20518;-76
2022/04/11 09:28:59;;;;;;;7.90;2.47;;;19.00;96.70;;;;;;5085063;28;20058;-76
2022/04/11 09:31:25;;;;;;;13.55;3.15;;;19.40;97.00;;;;;;5087305;28;20046;-76
2022/04/11 09:33:51;;;;;;;11.93;2.67;;;19.60;96.20;;;;;;5079635;28;20025;-77
2022/04/11 09:36:20;;;;;;;12.23;2.80;;;19.40;96.80;;;;;;5089355;28;20043;-77
2022/04/11 09:38:59;;;;;;;8.38;2.88;;;18.70;95.50;;;;;;5083163;28;20740;-77
2022/04/11 09:41:34;;;;;;;8.52;2.35;;;18.20;97.10;;;;;;5082930;28;20028;-77
2022/04/11 09:44:21;;;;;;;12.73;2.83;;;18.10;97.50;;;;;;5087591;28;20584;-77
2022/04/11 09:46:47;;;;;;;8.82;2.20;;;18.70;96.80;;;;;;5078965;28;20032;-76
2022/04/11 09:49:13;;;;;;;8.95;2.45;;;19.40;96.40;;;;;;5089345;28;20020;-77
2022/04/11 09:52:01;;;;;;;8.02;2.08;;;19.30;95.60;;;;;;5074444;28;20043;-78
2022/04/11 09:54:27;;;;;;;6.38;2.17;;;19.10;96.80;;;;;;5084198;28;20032;-77
2022/04/11 09:56:59;;;;;;;11.75;2.30;;;19.40;95.60;;;;;;5087251;28;20048;-77
2022/04/11 09:59:25;;;;;;;6.97;2.08;;;19.10;95.70;;;;;;5078757;28;20035;-79
2022/04/11 10:01:52;;;;;;;11.32;2.40;;;19.60;95.50;;;;;;5084676;28;20042;-77
2022/04/11 10:04:21;;;;;;;10.98;2.30;;;18.90;96.70;;;;;;5074917;28;20060;-75
2022/04/11 10:06:48;;;;;;;11.07;2.55;;;18.40;96.00;;;;;;5086482;28;20024;-75
2022/04/11 10:09:16;;;;;;;11.35;3.22;;;18.30;96.70;;;;;;5071949;28;20028;-75
2022/04/11 10:11:43;;;;;;;15.55;2.80;;;18.10;96.40;;;;;;5080604;28;20024;-75
2022/04/11 10:14:12;;;;;;;9.15;2.70;;;18.20;96.80;;;;;;5075877;28;20036;-76
2022/04/11 10:16:43;;;;;;;13.15;2.50;;;18.00;96.20;;;;;;5088476;28;20574;-75
2022/04/11 10:19:13;;;;;;;11.63;2.40;;;18.10;97.00;;;;;;5082988;28;20028;-76
2022/04/11 10:21:41;;;;;;;8.48;2.58;;;17.60;96.60;;;;;;5086634;28;20528;-75
2022/04/11 10:24:16;;;;;;;10.13;2.53;;;17.90;97.20;;;;;;5078776;28;20029;-75
2022/04/11 10:26:47;;;;;;;4.72;1.95;;;17.90;97.30;;;;;;5083317;28;20035;-75
2022/04/11 10:29:32;;;;;;;13.18;2.65;;;18.80;97.20;;;;;;5076504;28;20024;-76
2022/04/11 10:32:25;;;;;;;6.63;1.75;;;18.50;96.50;;;;;;5078226;28;20107;-76
2022/04/11 10:35:03;;;;;;;6.78;2.13;;;18.30;97.00;;;;;;5070391;28;20028;-76
2022/04/11 10:37:49;;;;;;;8.60;2.15;;;18.00;96.80;;;;;;5083148;28;20047;-76
2022/04/11 10:40:19;;;;;;;7.43;2.72;;;18.50;96.90;;;;;;5061265;28;20151;-77
2022/04/11 10:43:00;;;;;;;10.15;2.63;;;18.30;96.30;;;;;;5072420;28;20043;-76
2022/04/11 10:45:55;;;;;;;7.60;2.10;;;18.10;96.20;;;;;;5085432;28;20056;-76
2022/04/11 10:48:58;;;;;;;11.38;2.28;;;17.50;96.50;;;;;;5076709;28;20043;-77
2022/04/11 10:51:23;;;;;;;11.23;2.40;;;17.60;97.20;;;;;;5086949;28;20089;-76
2022/04/11 10:54:15;;;;;;;9.50;2.25;;;17.80;97.20;;;;;;5088058;28;20039;-76
2022/04/11 10:56:52;;;;;;;9.68;2.63;;;17.90;96.40;;;;;;5080552;28;20044;-76
2022/04/11 10:59:38;;;;;;;8.23;2.13;;;17.90;96.80;;;;;;5077610;28;20029;-77
2022/04/11 11:02:05;;;;;;;8.45;2.47;;;18.10;96.90;;;;;;5084462;28;20111;-77
2022/04/11 11:04:33;;;;;;;7.40;2.65;;;18.00;96.90;;;;;;5075862;28;20024;-77
2022/04/11 11:07:21;;;;;;;5.40;2.28;;;18.10;96.40;;;;;;5075508;28;20017;-77
2022/04/11 11:09:57;;;;;;;8.73;2.58;;;18.60;96.80;;;;;;5071728;28;20025;-77
2022/04/11 11:12:23;;;;;;;14.55;3.03;;;17.90;96.80;;;;;;5079869;28;20032;-76
2022/04/11 11:14:48;;;;;;;8.88;2.83;;;18.20;97.30;;;;;;5087660;28;20115;-77
2022/04/11 11:17:14;;;;;;;13.55;2.75;;;17.80;96.80;;;;;;5079604;28;20111;-76
2022/04/11 11:20:05;;;;;;;6.43;1.90;;;17.90;97.10;;;;;;5086966;28;20494;-77
2022/04/11 11:22:54;;;;;;;13.45;2.42;;;17.60;97.30;;;;;;5079248;28;20501;-77
2022/04/11 11:25:20;;;;;;;11.60;2.35;;;17.50;97.20;;;;;;5072822;28;20032;-76
2022/04/11 11:27:47;;;;;;;9.40;2.15;;;18.00;97.70;;;;;;5080256;28;20089;-76
2022/04/11 11:30:16;;;;;;;14.32;3.05;;;18.10;97.40;;;;;;5082060;28;20036;-77
2022/04/11 11:32:42;;;;;;;8.25;2.10;;;18.30;97.50;;;;;;5084678;28;20051;-77
2022/04/11 11:35:09;;;;;;;10.43;2.50;;;17.90;96.50;;;;;;5072090;28;20078;-77
2022/04/11 11:37:35;;;;;;;7.85;2.25;;;17.90;97.10;;;;;;5080574;28;20024;-76
2022/04/11 11:40:05;;;;;;;7.97;2.03;;;17.80;96.40;;;;;;5083300;28;20012;-77
2022/04/11 11:42:38;;;;;;;11.32;3.15;;;17.80;97.10;;;;;;5076160;28;20591;-78
2022/04/11 11:45:06;;;;;;;12.90;2.63;;;17.40;97.80;;;;;;5077652;28;20032;-78
2022/04/11 11:47:32;;;;;;;9.70;2.38;;;17.40;97.70;;;;;;5077507;28;20024;-80
2022/04/11 11:50:06;;;;;;;16.25;2.80;;;17.40;97.30;;;;;;5076558;28;20382;-77
2022/04/11 11:52:33;;;;;;;10.13;2.15;;;17.80;97.30;;;;;;5074844;28;20012;-78
2022/04/11 11:54:59;;;;;;;9.63;2.45;;;17.70;97.00;;;;;;5079333;28;20102;-77
2022/04/11 11:57:27;;;;;;;14.25;2.67;;;17.70;97.40;;;;;;5086298;28;20028;-77
2022/04/11 12:00:03;;;;;;;10.88;2.70;;;17.80;97.10;;;;;;5082976;28;20529;-78
2022/04/11 12:05:21;;;;;;;14.57;3.00;;;17.70;97.90;;;;;;5082688;28;20508;-79
2022/04/11 12:07:48;;;;;;;;;;;17.70;97.80;;;;;;5072645;28;20052;-80
2022/04/11 12:10:14;;;;;;;10.52;2.50;;;17.70;97.90;;;;;;5080547;28;19904;-79
2022/04/11 12:12:42;;;;;;;7.85;2.42;;;17.80;98.20;;;;;;5083085;28;20043;-80
2022/04/11 12:15:08;;;;;;;16.70;2.97;;;17.50;98.00;;;;;;5085306;28;20020;-80
2022/04/11 12:17:43;;;;;;;12.35;2.20;;;17.80;98.50;;;;;;5078092;28;20046;-77
2022/04/11 12:20:19;;;;;;;13.82;2.88;;;17.60;97.70;;;;;;5077880;28;20024;-79
2022/04/11 12:23:03;;;;;;;15.02;2.85;;;17.50;98.70;;;;;;5076964;28;20027;-79
2022/04/11 12:25:34;;;;;;;12.50;2.63;;;17.40;98.20;;;;;;5084569;28;20025;-79
2022/04/11 12:28:19;;;;;;;;;;;17.30;98.50;;;;;;5076056;28;20032;-80
2022/04/11 12:31:05;;;;;;;12.98;2.78;;;17.40;97.80;;;;;;5081732;28;19951;-79
2022/04/11 12:33:36;;;;;;;11.55;3.15;;;17.60;98.10;;;;;;5082499;28;20688;-79
2022/04/11 12:36:26;;;;;;;8.32;2.75;;;17.40;97.90;;;;;;5083862;28;20036;-79
2022/04/11 12:39:00;;;;;;;9.23;2.38;;;17.30;98.60;;;;;;5085133;28;20145;-79
2022/04/11 12:41:47;;;;;;;10.60;2.30;;;17.90;99.20;;;;;;5083394;28;20028;-78
2022/04/11 12:44:15;;;;;;;12.40;2.53;;;18.30;98.70;;;;;;5076968;28;20073;-77
2022/04/11 12:46:45;;;;;;;10.07;2.55;;;17.90;98.20;;;;;;5070056;28;20047;-77
2022/04/11 12:49:13;;;;;;;9.80;2.95;;;17.90;98.10;;;;;;5087705;28;20024;-78
2022/04/11 12:51:39;;;;;;;11.10;3.78;;;18.00;98.30;;;;;;5090249;28;20486;-78